00:54
Airports
History
Links
Donate
Help keep this website running!
PayPal
Bitcoin
This page is community maintained. The information is intended for PC simulator navigation or reference.
Always use approved charts for navigation.
SIQE
Botelho
Botelho (SIQE)
Brasília, Distrito Federal, Brazil
4
Lat/Lng:15° 56' 30" S / 47° 43' 13" W
-15.941667 / -47.720278
Elevation:3399'ft / 1036mMSL
ID / ICAO:SIQE
Runways:1
Longest:14-32
Gravel 1,754m / 5,755ft
Nearby Weather00:00 GMT 2017-09-22
Nearby weather at SBBR, Brasilia Presidente Juscelino Kubitsch located 14.1 nautical miles from SIQE
Altimeter: 30.18
Visibility: 6.2 statute miles
Wind: 5 knots (from 090°)
Temp: 20°c / 68°f
Humidity: 49.1%

METAR: SBBR 220000Z 09005KT CAVOK 20/09 Q1022

(Powered by phpweather)
Runway 14 / 32
Dimensions:1754.2 x 29.9m 5755' x 98'ft
Surface:Gravel
Runway 14 [A]Runway 32 [B]
Heading:120°TH 300°TH
Lat:
Lng:
15° 56' 15.72"S
47° 43' 38.63"W
15° 56' 44.28"S
47° 42' 47.37"W
User Notes and Comments
15° 56' 30" S / 47° 43' 13" W
Distance To
Airport ID:
Nearby Airports
4 Piquet 8.3 NM
SSGP NW 316°
(C) Brasilia Presidente Juscelino Kubitsch 14.1 NM
SBBR ( WX ) WNW 290°
4 Aerorancho 18.3 NM
SDNT N 349°
(U) Fazenda Pamplona 20.0 NM
SWFA SSE 161°
4 Planaltina 21.6 NM
SWPV NNE 32°
(C) Luziania 27.6 NM
SWUZ SW 216°
4 Fazenda Palma 29.3 NM
SJPH SW 234°
VFR Chart
Flight Planning at SkyVector.com